createdAt,value
2018-02-25T00:00:54.018Z,18.80
2018-02-25T00:03:21.063Z,17.47
2018-02-25T00:05:48.167Z,15.43
2018-02-25T00:08:15.202Z,15.67
2018-02-25T00:10:42.251Z,13.70
2018-02-25T00:13:09.343Z,12.70
2018-02-25T00:15:36.390Z,14.30
2018-02-25T00:18:03.439Z,14.70
2018-02-25T00:20:30.541Z,11.47
2018-02-25T00:22:57.583Z,13.33
2018-02-25T00:25:24.632Z,13.63
2018-02-25T00:27:51.731Z,14.37
2018-02-25T00:30:18.783Z,14.03
2018-02-25T00:32:45.831Z,14.63
2018-02-25T00:35:12.939Z,12.43
2018-02-25T00:37:39.996Z,15.80
2018-02-25T00:40:07.041Z,14.03
2018-02-25T00:42:34.155Z,14.83
2018-02-25T00:45:01.211Z,14.47
2018-02-25T00:47:28.358Z,17.33
2018-02-25T00:49:55.442Z,14.77
2018-02-25T00:55:01.031Z,18.55
2018-02-25T00:57:28.085Z,17.50
2018-02-25T00:59:55.143Z,13.73
2018-02-25T01:02:22.247Z,15.33
2018-02-25T01:04:49.292Z,16.23
2018-02-25T01:07:16.336Z,15.13
2018-02-25T01:09:43.435Z,14.73
2018-02-25T01:12:10.491Z,14.57
2018-02-25T01:14:37.536Z,11.13
2018-02-25T01:25:13.876Z,14.07
2018-02-25T01:27:40.924Z,13.23
2018-02-25T01:30:08.034Z,13.40
2018-02-25T01:32:35.076Z,13.13
2018-02-25T01:35:02.132Z,12.63
2018-02-25T01:37:29.226Z,15.40
2018-02-25T01:39:56.268Z,15.57
2018-02-25T01:42:23.307Z,14.63
2018-02-25T01:44:50.412Z,14.97
2018-02-25T01:47:17.466Z,11.03
2018-02-25T01:49:44.510Z,12.63
2018-02-25T01:52:11.623Z,8.87
2018-02-25T01:54:38.661Z,10.70
2018-02-25T01:57:06.226Z,13.13
2018-02-25T01:59:33.244Z,8.93
2018-02-25T02:02:00.298Z,12.63
2018-02-25T02:04:27.340Z,9.67
2018-02-25T02:06:54.447Z,11.80
2018-02-25T02:09:21.494Z,13.70
2018-02-25T02:11:48.553Z,13.00
2018-02-25T02:14:15.654Z,10.50
2018-02-25T02:16:42.700Z,10.87
2018-02-25T02:19:09.743Z,9.80
2018-02-25T02:21:36.830Z,8.60
2018-02-25T02:26:44.416Z,16.45
2018-02-25T02:29:11.470Z,13.80
2018-02-25T02:31:38.834Z,13.97
2018-02-25T02:34:05.943Z,11.77
2018-02-25T02:36:32.995Z,13.00
2018-02-25T02:39:00.042Z,12.13
2018-02-25T02:41:27.228Z,11.10
2018-02-25T02:43:54.270Z,12.10
2018-02-25T02:46:21.323Z,12.67
2018-02-25T02:48:48.428Z,12.10
2018-02-25T02:51:15.474Z,13.10
2018-02-25T02:53:42.518Z,13.17
2018-02-25T02:56:09.673Z,10.50
2018-02-25T02:58:36.691Z,12.17
2018-02-25T03:01:05.191Z,12.10
2018-02-25T03:03:34.112Z,12.13
2018-02-25T03:06:01.494Z,12.97
2018-02-25T03:08:28.531Z,13.93
2018-02-25T03:10:55.630Z,11.53
2018-02-25T03:13:22.690Z,10.53
2018-02-25T03:15:49.741Z,10.83
2018-02-25T03:18:16.945Z,10.03
2018-02-25T03:20:44.006Z,11.67
2018-02-25T03:23:11.058Z,11.77
2018-02-25T03:25:38.144Z,10.80
2018-02-25T03:28:05.194Z,9.13
2018-02-25T03:30:32.238Z,9.27
2018-02-25T03:32:59.332Z,12.27
2018-02-25T03:38:07.688Z,13.88
2018-02-25T03:40:34.728Z,11.10
2018-02-25T03:43:01.773Z,10.20
2018-02-25T03:45:28.865Z,11.43
2018-02-25T03:47:55.910Z,9.43
2018-02-25T03:50:22.956Z,9.23
2018-02-25T03:52:50.048Z,9.03
2018-02-25T03:55:17.092Z,9.90
2018-02-25T03:57:44.133Z,9.13
2018-02-25T04:00:11.229Z,10.73
2018-02-25T04:02:38.283Z,10.30
2018-02-25T04:05:05.325Z,9.37
2018-02-25T04:07:32.424Z,13.07
2018-02-25T04:10:00.238Z,10.13
2018-02-25T04:12:27.280Z,6.53
2018-02-25T04:14:55.164Z,9.13
2018-02-25T04:17:22.209Z,9.47
2018-02-25T04:19:49.266Z,10.53
2018-02-25T04:22:16.794Z,13.70
2018-02-25T04:24:47.019Z,8.10
2018-02-25T04:27:14.466Z,8.73
2018-02-25T04:29:41.582Z,9.10
2018-02-25T04:32:08.644Z,5.23
2018-02-25T04:34:35.681Z,8.20
2018-02-25T04:37:02.772Z,10.53
2018-02-25T04:39:29.822Z,9.43
2018-02-25T04:41:59.040Z,9.20
2018-02-25T04:44:26.158Z,10.67
2018-02-25T04:46:53.194Z,10.67
2018-02-25T04:49:20.244Z,7.30
2018-02-25T04:51:47.362Z,9.07
2018-02-25T04:54:14.409Z,9.33
2018-02-25T04:56:41.453Z,8.13
2018-02-25T05:01:47.030Z,13.35
2018-02-25T05:04:14.123Z,10.73
2018-02-25T05:06:41.170Z,9.40
2018-02-25T05:09:08.210Z,8.63
2018-02-25T05:11:35.326Z,10.23
2018-02-25T05:14:02.374Z,9.60
2018-02-25T05:16:29.412Z,9.00
2018-02-25T05:18:56.516Z,8.70
2018-02-25T05:21:23.559Z,9.77
2018-02-25T05:23:50.614Z,10.63
2018-02-25T05:26:17.703Z,9.53
2018-02-25T05:28:44.744Z,9.77
2018-02-25T05:31:11.795Z,10.53
2018-02-25T05:33:38.899Z,8.93
2018-02-25T05:36:05.949Z,11.67
2018-02-25T05:38:32.986Z,12.47
2018-02-25T05:41:00.083Z,10.50
2018-02-25T05:43:27.137Z,11.33
2018-02-25T05:45:54.178Z,13.20
2018-02-25T05:48:21.274Z,8.00
2018-02-25T05:50:48.318Z,13.67
2018-02-25T05:53:15.356Z,9.37
2018-02-25T05:55:42.464Z,11.73
2018-02-25T06:00:41.712Z,11.93
2018-02-25T06:03:08.831Z,10.53
2018-02-25T06:05:35.885Z,12.90
2018-02-25T06:08:02.931Z,9.50
2018-02-25T06:10:30.030Z,9.70
2018-02-25T06:12:57.537Z,9.77
2018-02-25T06:15:24.584Z,11.07
2018-02-25T06:17:51.951Z,8.43
2018-02-25T06:20:19.007Z,9.73
2018-02-25T06:22:46.043Z,8.83
2018-02-25T06:27:51.637Z,14.55
2018-02-25T06:30:18.753Z,8.87
2018-02-25T06:32:45.815Z,11.97
2018-02-25T06:35:12.860Z,10.17
2018-02-25T06:37:39.966Z,9.37
2018-02-25T06:40:07.008Z,10.63
2018-02-25T06:42:34.060Z,13.07
2018-02-25T06:45:01.193Z,7.00
2018-02-25T06:47:28.234Z,7.57
2018-02-25T06:49:55.286Z,9.70
2018-02-25T06:52:22.485Z,11.97
2018-02-25T06:54:49.544Z,10.93
2018-02-25T06:57:16.587Z,9.50
2018-02-25T06:59:43.716Z,8.03
2018-02-25T07:02:10.758Z,9.30
2018-02-25T07:04:37.810Z,12.17
2018-02-25T07:07:05.165Z,10.27
2018-02-25T07:09:32.206Z,12.33
2018-02-25T07:11:59.250Z,9.30
2018-02-25T07:14:26.356Z,12.53
2018-02-25T07:16:53.398Z,10.77
2018-02-25T07:19:20.438Z,9.90
2018-02-25T07:21:47.533Z,7.10
2018-02-25T07:24:14.571Z,11.83
2018-02-25T07:26:41.659Z,12.23
2018-02-25T07:29:08.731Z,11.90
2018-02-25T07:31:35.771Z,10.17
2018-02-25T07:34:03.150Z,10.20
2018-02-25T07:36:30.271Z,11.93
2018-02-25T07:38:57.305Z,10.27
2018-02-25T07:44:02.960Z,15.20
2018-02-25T07:46:32.737Z,11.80
2018-02-25T07:48:57.040Z,12.47
2018-02-25T07:51:24.207Z,12.33
2018-02-25T07:53:51.202Z,13.13
2018-02-25T07:56:18.243Z,12.00
2018-02-25T07:58:45.351Z,11.63
2018-02-25T08:01:12.421Z,8.73
2018-02-25T08:03:39.549Z,11.23
2018-02-25T08:06:06.664Z,9.00
2018-02-25T08:11:14.719Z,13.93
2018-02-25T08:13:41.788Z,13.10
2018-02-25T08:16:08.842Z,12.83
2018-02-25T08:18:35.934Z,13.43
2018-02-25T08:21:03.310Z,13.33
2018-02-25T08:23:30.369Z,12.60
2018-02-25T08:25:57.475Z,10.70
2018-02-25T08:28:24.528Z,12.70
2018-02-25T08:30:51.614Z,13.67
2018-02-25T08:33:18.771Z,10.73
2018-02-25T08:35:45.828Z,12.53
2018-02-25T08:38:12.868Z,10.37
2018-02-25T08:40:39.968Z,9.20
2018-02-25T08:43:07.021Z,13.20
2018-02-25T08:45:34.058Z,11.20
2018-02-25T08:48:01.178Z,12.93
2018-02-25T08:50:28.216Z,11.60
2018-02-25T08:52:55.265Z,10.97
2018-02-25T08:55:25.244Z,13.07
2018-02-25T08:57:49.432Z,14.57
2018-02-25T09:00:16.570Z,12.40
2018-02-25T09:02:43.838Z,13.77
2018-02-25T09:05:10.883Z,11.30
2018-02-25T09:07:37.934Z,13.27
2018-02-25T09:10:05.057Z,13.17
2018-02-25T09:12:32.114Z,11.53
2018-02-25T09:15:00.137Z,11.87
2018-02-25T09:17:27.244Z,10.93
2018-02-25T09:19:54.298Z,12.17
2018-02-25T09:22:21.358Z,12.00
2018-02-25T09:24:48.459Z,13.37
2018-02-25T09:27:15.504Z,10.80
2018-02-25T09:29:42.575Z,12.70
2018-02-25T09:32:09.817Z,11.50
2018-02-25T09:37:15.403Z,15.98
2018-02-25T09:39:42.988Z,10.77
2018-02-25T09:42:09.958Z,12.30
2018-02-25T09:47:17.370Z,14.27
2018-02-25T09:49:44.148Z,12.37
2018-02-25T09:54:47.045Z,10.90
2018-02-25T09:57:14.094Z,11.33
2018-02-25T09:59:41.144Z,9.50
2018-02-25T10:02:08.263Z,12.87
2018-02-25T10:04:35.324Z,9.80
2018-02-25T10:07:02.450Z,8.90
2018-02-25T10:09:29.649Z,9.30
2018-02-25T10:11:56.713Z,10.70
2018-02-25T10:14:23.795Z,12.83
2018-02-25T10:16:50.845Z,11.20
2018-02-25T10:19:17.913Z,13.27
2018-02-25T10:21:44.959Z,11.87
2018-02-25T10:24:12.071Z,7.60
2018-02-25T10:26:39.114Z,11.60
2018-02-25T10:29:06.161Z,11.63
2018-02-25T10:31:33.272Z,10.87
2018-02-25T10:34:01.292Z,11.60
2018-02-25T10:36:28.372Z,10.13
2018-02-25T10:38:55.476Z,11.10
2018-02-25T10:41:22.537Z,12.17
2018-02-25T10:43:49.699Z,12.80
2018-02-25T10:46:16.803Z,12.87
2018-02-25T10:48:43.874Z,11.17
2018-02-25T10:51:10.940Z,10.93
2018-02-25T10:53:38.054Z,12.30
2018-02-25T10:56:05.107Z,12.07
2018-02-25T10:58:32.256Z,11.27
2018-02-25T11:00:59.360Z,12.20
2018-02-25T11:03:26.412Z,9.87
2018-02-25T11:05:53.475Z,10.70
2018-02-25T11:10:59.083Z,14.25
2018-02-25T11:13:26.203Z,12.97
2018-02-25T11:15:53.276Z,9.93
2018-02-25T11:18:20.329Z,10.53
2018-02-25T11:20:47.862Z,11.33
2018-02-25T11:23:14.897Z,10.00
2018-02-25T11:25:42.290Z,10.50
2018-02-25T11:28:09.398Z,10.33
2018-02-25T11:30:36.462Z,9.90
2018-02-25T11:33:03.514Z,10.83
2018-02-25T11:35:30.642Z,10.73
2018-02-25T11:37:57.711Z,9.90
2018-02-25T11:40:24.847Z,9.73
2018-02-25T11:42:52.043Z,10.50
2018-02-25T11:45:19.100Z,7.17
2018-02-25T11:47:46.171Z,11.17
2018-02-25T11:50:13.281Z,9.93
2018-02-25T11:52:40.392Z,8.87
2018-02-25T11:55:07.417Z,11.10
2018-02-25T11:57:34.529Z,10.00
2018-02-25T12:00:03.488Z,11.90
2018-02-25T12:02:30.557Z,8.10
2018-02-25T12:04:57.660Z,11.20
2018-02-25T12:07:24.722Z,10.07
2018-02-25T12:09:51.796Z,7.40
2018-02-25T12:12:18.898Z,11.20
2018-02-25T12:14:45.961Z,12.43
2018-02-25T12:17:13.012Z,10.93
2018-02-25T12:19:40.116Z,7.60
2018-02-25T12:22:07.172Z,10.93
2018-02-25T12:24:34.228Z,7.50
2018-02-25T12:27:01.350Z,9.87
2018-02-25T12:29:28.399Z,9.17
2018-02-25T12:34:34.489Z,11.55
2018-02-25T12:37:01.467Z,11.07
2018-02-25T12:39:28.522Z,10.40
2018-02-25T12:41:55.643Z,10.50
2018-02-25T12:44:22.703Z,6.83
2018-02-25T12:46:49.768Z,10.30
2018-02-25T12:49:16.885Z,9.83
2018-02-25T12:51:43.934Z,10.43
2018-02-25T12:54:11.033Z,9.77
2018-02-25T12:56:38.173Z,12.47
2018-02-25T12:59:05.256Z,6.83
2018-02-25T13:01:32.280Z,7.37
2018-02-25T13:03:59.390Z,8.50
2018-02-25T13:06:26.456Z,8.70
2018-02-25T13:08:53.514Z,11.10
2018-02-25T13:11:20.637Z,5.63
2018-02-25T13:13:47.704Z,11.50
2018-02-25T13:16:14.775Z,10.50
2018-02-25T13:18:41.896Z,12.00
2018-02-25T13:21:08.951Z,12.13
2018-02-25T13:23:36.011Z,10.50
2018-02-25T13:26:03.119Z,10.57
2018-02-25T13:28:30.185Z,13.60
2018-02-25T13:30:57.274Z,11.70
2018-02-25T13:33:24.437Z,7.50
2018-02-25T13:35:51.448Z,11.73
2018-02-25T13:38:18.509Z,12.77
2018-02-25T13:40:45.614Z,9.57
2018-02-25T13:43:12.675Z,12.40
2018-02-25T13:45:39.731Z,10.93
2018-02-25T13:48:06.841Z,10.77
2018-02-25T13:50:33.919Z,6.47
2018-02-25T13:53:00.975Z,10.77
2018-02-25T13:58:06.650Z,12.98
2018-02-25T14:00:33.970Z,10.83
2018-02-25T14:03:00.964Z,8.47
2018-02-25T14:05:28.101Z,9.80
2018-02-25T14:07:55.200Z,10.03
2018-02-25T14:10:22.263Z,11.83
2018-02-25T14:12:49.323Z,10.23
2018-02-25T14:15:16.452Z,11.23
2018-02-25T14:17:43.550Z,11.10
2018-02-25T14:20:12.867Z,13.23
2018-02-25T14:22:39.986Z,9.63
2018-02-25T14:25:07.131Z,10.40
2018-02-25T14:27:34.278Z,10.97
2018-02-25T14:30:04.534Z,12.90
2018-02-25T14:32:31.561Z,13.77
2018-02-25T14:34:58.623Z,10.17
2018-02-25T14:37:25.750Z,10.60
2018-02-25T14:39:52.823Z,9.17
2018-02-25T14:42:19.875Z,9.77
2018-02-25T14:44:46.988Z,9.83
2018-02-25T14:47:14.055Z,7.20
2018-02-25T14:49:41.138Z,8.03
2018-02-25T14:52:08.238Z,7.87
2018-02-25T14:54:35.313Z,8.60
2018-02-25T14:57:02.370Z,11.60
2018-02-25T14:59:29.486Z,10.67
2018-02-25T15:01:56.544Z,9.90
2018-02-25T15:07:02.149Z,12.05
2018-02-25T15:09:29.226Z,8.93
2018-02-25T15:11:56.282Z,9.23
2018-02-25T15:14:23.866Z,9.50
2018-02-25T15:16:50.935Z,10.20
2018-02-25T15:19:17.993Z,10.60
2018-02-25T15:21:45.133Z,5.37
2018-02-25T15:24:12.195Z,10.37
2018-02-25T15:26:39.259Z,7.90
2018-02-25T15:29:06.401Z,9.00
2018-02-25T15:31:33.452Z,9.20
2018-02-25T15:34:00.512Z,9.20
2018-02-25T15:36:27.718Z,10.27
2018-02-25T15:38:54.794Z,6.80
2018-02-25T15:41:21.854Z,10.30
2018-02-25T15:43:48.976Z,11.97
2018-02-25T15:46:16.042Z,8.00
2018-02-25T15:48:43.109Z,7.17
2018-02-25T15:51:10.302Z,10.23
2018-02-25T15:53:37.363Z,9.33
2018-02-25T15:56:04.429Z,9.93
2018-02-25T15:58:31.534Z,9.43
2018-02-25T16:00:58.587Z,9.87
2018-02-25T16:03:25.899Z,9.23
2018-02-25T16:05:53.020Z,11.50
2018-02-25T16:08:20.078Z,10.23
2018-02-25T16:10:47.193Z,7.57
2018-02-25T16:13:14.256Z,7.33
2018-02-25T16:15:41.303Z,7.70
2018-02-25T16:18:08.377Z,8.73
2018-02-25T16:20:35.491Z,10.30
2018-02-25T16:23:02.565Z,11.73
2018-02-25T16:25:29.704Z,10.30
2018-02-25T16:27:57.698Z,9.67
2018-02-25T16:33:03.313Z,9.50
2018-02-25T16:35:30.815Z,8.57
2018-02-25T16:37:57.873Z,7.27
2018-02-25T16:40:24.984Z,6.07
2018-02-25T16:42:52.043Z,9.43
2018-02-25T16:45:19.093Z,9.03
2018-02-25T16:47:46.209Z,10.73
2018-02-25T16:50:13.247Z,9.03
2018-02-25T16:52:42.402Z,6.23
2018-02-25T16:55:09.523Z,6.67
2018-02-25T16:57:36.564Z,9.50
2018-02-25T17:00:03.871Z,8.10
2018-02-25T17:02:30.981Z,10.27
2018-02-25T17:04:58.130Z,7.03
2018-02-25T17:07:25.171Z,9.73
2018-02-25T17:09:52.273Z,9.77
2018-02-25T17:12:20.138Z,5.13
2018-02-25T17:14:47.187Z,7.00
2018-02-25T17:17:14.284Z,8.57
2018-02-25T17:19:41.349Z,5.37
2018-02-25T17:22:10.345Z,7.20
2018-02-25T17:24:35.514Z,7.00
2018-02-25T17:27:02.581Z,11.57
2018-02-25T17:29:29.629Z,9.10
2018-02-25T17:31:56.720Z,10.27
2018-02-25T17:34:23.822Z,9.07
2018-02-25T17:36:50.846Z,11.73
2018-02-25T17:39:18.038Z,7.77
2018-02-25T17:41:45.078Z,8.17
2018-02-25T17:44:12.129Z,7.20
2018-02-25T17:46:41.015Z,6.07
2018-02-25T17:49:08.058Z,8.17
2018-02-25T17:54:13.692Z,11.35
2018-02-25T17:56:40.749Z,8.90
2018-02-25T17:59:07.791Z,9.90
2018-02-25T18:01:34.881Z,5.90
2018-02-25T18:04:04.229Z,6.57
2018-02-25T18:06:31.276Z,9.30
2018-02-25T18:08:58.382Z,8.93
2018-02-25T18:11:25.432Z,6.90
2018-02-25T18:13:52.484Z,4.10
2018-02-25T18:16:19.583Z,7.03
2018-02-25T18:18:46.621Z,6.87
2018-02-25T18:21:13.687Z,5.93
2018-02-25T18:23:40.774Z,7.70
2018-02-25T18:26:07.838Z,6.03
2018-02-25T18:28:34.912Z,8.00
2018-02-25T18:31:02.018Z,7.10
2018-02-25T18:33:29.071Z,7.60
2018-02-25T18:35:56.216Z,7.60
2018-02-25T18:38:23.331Z,6.77
2018-02-25T18:40:50.408Z,8.20
2018-02-25T18:43:17.539Z,8.20
2018-02-25T18:45:44.652Z,7.63
2018-02-25T18:48:11.731Z,7.40
2018-02-25T18:50:38.798Z,8.57
2018-02-25T18:53:05.907Z,8.47
2018-02-25T18:55:33.083Z,7.33
2018-02-25T18:58:03.192Z,7.07
2018-02-25T19:00:30.306Z,7.33
2018-02-25T19:02:57.924Z,6.77
2018-02-25T19:05:24.967Z,8.13
2018-02-25T19:07:54.468Z,8.87
2018-02-25T19:10:21.508Z,7.70
2018-02-25T19:15:31.582Z,9.45
2018-02-25T19:17:58.647Z,8.57
2018-02-25T19:20:25.810Z,7.80
2018-02-25T19:22:53.308Z,8.03
2018-02-25T19:25:20.345Z,8.00
2018-02-25T19:27:53.198Z,8.07
2018-02-25T19:30:19.466Z,9.00
2018-02-25T19:32:46.710Z,9.70
2018-02-25T19:35:13.823Z,8.07
2018-02-25T19:37:40.888Z,9.17
2018-02-25T19:40:07.961Z,9.37
2018-02-25T19:42:35.150Z,8.53
2018-02-25T19:45:02.227Z,9.07
2018-02-25T19:47:29.283Z,8.03
2018-02-25T19:49:57.401Z,8.20
2018-02-25T19:52:24.487Z,8.53
2018-02-25T19:54:51.557Z,7.33
2018-02-25T19:57:18.693Z,8.53
2018-02-25T19:59:50.656Z,8.50
2018-02-25T20:02:18.097Z,8.50
2018-02-25T20:04:45.244Z,8.87
2018-02-25T20:07:43.769Z,9.40
2018-02-25T20:09:47.143Z,9.20
2018-02-25T20:14:45.807Z,8.67
2018-02-25T20:19:53.907Z,11.40
2018-02-25T20:22:21.078Z,10.03
2018-02-25T20:24:48.191Z,7.77
2018-02-25T20:27:15.313Z,7.40
2018-02-25T20:29:42.406Z,7.70
2018-02-25T20:32:10.135Z,7.97
2018-02-25T20:34:37.191Z,7.47
2018-02-25T20:37:04.327Z,7.23
2018-02-25T20:39:31.435Z,7.30
2018-02-25T20:41:58.501Z,7.10
2018-02-25T20:44:25.624Z,7.97
2018-02-25T20:46:52.679Z,7.30
2018-02-25T20:49:19.816Z,7.90
2018-02-25T20:51:46.874Z,8.27
2018-02-25T20:54:13.969Z,7.73
2018-02-25T20:56:41.014Z,7.00
2018-02-25T20:59:08.142Z,8.73
2018-02-25T21:01:35.284Z,7.80
2018-02-25T21:04:02.345Z,8.03
2018-02-25T21:06:29.416Z,8.23
2018-02-25T21:08:56.639Z,8.70
2018-02-25T21:11:23.734Z,6.70
2018-02-25T21:13:53.717Z,7.40
2018-02-25T21:18:58.996Z,8.57
2018-02-25T21:21:24.924Z,8.57
2018-02-25T21:23:52.061Z,7.50
2018-02-25T21:26:19.143Z,7.20
2018-02-25T21:28:46.397Z,6.27
2018-02-25T21:31:13.467Z,8.23
2018-02-25T21:33:40.499Z,8.73
2018-02-25T21:36:07.615Z,5.13
2018-02-25T21:38:36.029Z,4.03
2018-02-25T21:43:41.627Z,11.23
2018-02-25T21:46:08.709Z,7.90
2018-02-25T21:48:35.767Z,8.83
2018-02-25T21:51:02.893Z,9.23
2018-02-25T21:53:29.951Z,10.03
2018-02-25T21:55:57.012Z,6.13
2018-02-25T21:58:24.112Z,8.23
2018-02-25T22:00:51.226Z,6.67
2018-02-25T22:03:18.274Z,10.47
2018-02-25T22:05:45.398Z,7.20
2018-02-25T22:08:12.467Z,10.13
2018-02-25T22:10:39.532Z,5.37
2018-02-25T22:13:06.637Z,6.73
2018-02-25T22:15:33.693Z,7.90
2018-02-25T22:18:00.780Z,6.37
2018-02-25T22:23:09.008Z,10.40
2018-02-25T22:25:36.124Z,8.27
2018-02-25T22:28:03.195Z,8.10
2018-02-25T22:30:30.258Z,7.67
2018-02-25T22:32:57.495Z,5.90
2018-02-25T22:35:24.561Z,6.90
2018-02-25T22:37:51.620Z,8.43
2018-02-25T22:40:18.755Z,5.10
2018-02-25T22:42:46.297Z,7.03
2018-02-25T22:45:13.454Z,9.57
2018-02-25T22:47:40.661Z,11.20
2018-02-25T22:50:07.713Z,8.50
2018-02-25T22:52:34.779Z,7.70
2018-02-25T22:55:01.897Z,8.60
2018-02-25T22:57:28.972Z,9.53
2018-02-25T22:59:56.362Z,7.20
2018-02-25T23:02:23.493Z,9.97
2018-02-25T23:04:50.647Z,7.17
2018-02-25T23:07:17.815Z,8.67
2018-02-25T23:09:46.975Z,7.77
2018-02-25T23:12:20.417Z,9.50
2018-02-25T23:14:47.526Z,10.07
2018-02-25T23:17:14.676Z,9.73
2018-02-25T23:19:41.824Z,8.83
2018-02-25T23:22:09.024Z,5.67
2018-02-25T23:24:36.088Z,5.17
2018-02-25T23:27:03.160Z,10.17
2018-02-25T23:29:30.274Z,9.90
2018-02-25T23:31:57.355Z,5.80
2018-02-25T23:34:24.411Z,5.63
2018-02-25T23:36:51.616Z,8.00
2018-02-25T23:39:18.694Z,8.53
2018-02-25T23:41:45.855Z,8.50
2018-02-25T23:44:12.968Z,8.33
2018-02-25T23:49:19.420Z,11.93
2018-02-25T23:51:46.481Z,8.00
2018-02-25T23:54:13.549Z,4.70
2018-02-25T23:56:40.694Z,7.20
